Time;durP1;ratioP1;P1;durP2;ratioP2;P2;SDS_P1;SDS_P2;PMS_P1;PMS_P2;Temp;Humidity;BMP_temperature;BMP_pressure;BME280_temperature;BME280_humidity;BME280_pressure;Samples;Min_cycle;Max_cycle;Signal;HPM_P1;HPM_P2
2024/01/28 00:00:19;;;;;;;12.38;6.25;;;;;;;0.75;100.00;103457.19;4940572;28;20759;-74
2024/01/28 00:02:45;;;;;;;15.88;6.07;;;;;;;0.73;100.00;103444.13;4925478;29;20050;-76
2024/01/28 00:05:15;;;;;;;12.88;5.80;;;;;;;0.74;100.00;103447.59;4940671;28;20035;-74
2024/01/28 00:07:40;;;;;;;14.38;5.63;;;;;;;0.68;100.00;103449.00;4937099;28;20087;-74
2024/01/28 00:10:07;;;;;;;12.60;5.75;;;;;;;0.63;100.00;103448.56;4943372;28;20408;-75
2024/01/28 00:12:33;;;;;;;14.57;5.38;;;;;;;0.57;100.00;103448.28;4941660;28;20047;-74
2024/01/28 00:14:59;;;;;;;15.32;6.22;;;;;;;0.47;100.00;103441.16;4908477;28;20095;-74
2024/01/28 00:17:24;;;;;;;12.60;5.85;;;;;;;0.39;100.00;103448.94;4924885;29;20500;-75
2024/01/28 00:19:50;;;;;;;14.43;5.40;;;;;;;0.35;100.00;103449.38;4939920;28;20434;-73
2024/01/28 00:22:16;;;;;;;12.98;5.72;;;;;;;0.32;100.00;103444.34;4915002;29;20049;-74
2024/01/28 00:24:41;;;;;;;18.40;6.57;;;;;;;0.32;100.00;103444.34;4943597;28;20035;-74
2024/01/28 00:27:08;;;;;;;13.40;5.85;;;;;;;0.25;100.00;103442.25;4930067;28;20027;-75
2024/01/28 00:29:33;;;;;;;13.65;6.28;;;;;;;0.19;100.00;103440.16;4923785;29;20038;-74
2024/01/28 00:31:59;;;;;;;12.05;5.68;;;;;;;0.13;100.00;103440.69;4941999;28;20114;-73
2024/01/28 00:34:25;;;;;;;15.00;5.88;;;;;;;0.07;100.00;103443.88;4928727;29;20030;-75
2024/01/28 00:36:51;;;;;;;11.80;5.57;;;;;;;0.04;100.00;103440.66;4925340;28;20055;-75
2024/01/28 00:39:17;;;;;;;10.20;5.35;;;;;;;0.01;100.00;103435.69;4941237;28;20051;-74
2024/01/28 00:41:43;;;;;;;13.80;5.55;;;;;;;-0.05;100.00;103437.03;4942229;28;20039;-74
2024/01/28 00:44:09;;;;;;;9.75;5.90;;;;;;;-0.08;100.00;103435.50;4937425;28;20050;-74
2024/01/28 00:46:35;;;;;;;9.88;5.20;;;;;;;-0.11;100.00;103438.41;4941582;28;20392;-73
2024/01/28 00:49:03;;;;;;;12.95;5.70;;;;;;;-0.14;100.00;103425.47;4921479;28;20118;-74
2024/01/28 00:51:31;;;;;;;10.93;5.13;;;;;;;-0.10;100.00;103433.97;4936301;28;20481;-74
2024/01/28 00:53:57;;;;;;;11.52;6.18;;;;;;;-0.07;100.00;103433.69;4912705;28;20038;-76
2024/01/28 00:56:23;;;;;;;13.55;5.57;;;;;;;-0.07;100.00;103428.41;4916163;29;20062;-73
2024/01/28 00:58:50;;;;;;;12.40;5.72;;;;;;;-0.08;100.00;103426.75;4937608;28;20039;-72
2024/01/28 01:01:18;;;;;;;14.27;5.30;;;;;;;-0.11;100.00;103424.41;4942067;28;20086;-72
2024/01/28 01:03:44;;;;;;;12.30;5.90;;;;;;;-0.14;100.00;103422.00;4940577;28;20114;-74
2024/01/28 01:06:10;;;;;;;13.27;5.75;;;;;;;-0.14;100.00;103429.91;4933676;28;20485;-72
2024/01/28 01:08:35;;;;;;;16.00;5.50;;;;;;;-0.11;100.00;103424.41;4927417;29;20027;-75
2024/01/28 01:11:03;;;;;;;14.85;5.68;;;;;;;-0.06;100.00;103427.47;4938001;28;20584;-73
2024/01/28 01:13:32;;;;;;;12.75;5.68;;;;;;;-0.05;100.00;103423.88;4934727;28;20042;-72
2024/01/28 01:15:58;;;;;;;12.63;5.43;;;;;;;-0.10;100.00;103423.44;4933448;28;20118;-73
2024/01/28 01:18:25;;;;;;;11.40;5.90;;;;;;;-0.20;100.00;103418.13;4936155;28;20062;-76
2024/01/28 01:20:53;;;;;;;11.05;5.68;;;;;;;-0.23;100.00;103417.56;4943906;28;20035;-75
2024/01/28 01:23:19;;;;;;;17.77;6.82;;;;;;;-0.30;100.00;103415.44;4944881;28;20405;-75
2024/01/28 01:25:45;;;;;;;16.42;5.45;;;;;;;-0.32;100.00;103412.13;4942337;28;20043;-74
2024/01/28 01:28:10;;;;;;;14.25;6.05;;;;;;;-0.35;100.00;103420.28;4925344;28;20027;-76
2024/01/28 01:30:36;;;;;;;11.68;5.82;;;;;;;-0.37;100.00;103422.22;4940689;28;20039;-76
2024/01/28 01:33:02;;;;;;;16.30;6.13;;;;;;;-0.40;100.00;103425.13;4939690;28;20071;-74
2024/01/28 01:35:28;;;;;;;13.13;5.68;;;;;;;-0.42;100.00;103429.66;4903022;29;20042;-72
2024/01/28 01:37:54;;;;;;;11.38;5.72;;;;;;;-0.46;100.00;103428.28;4943751;28;20167;-73
2024/01/28 01:40:20;;;;;;;12.38;5.80;;;;;;;-0.46;100.00;103427.44;4938918;28;20039;-76
2024/01/28 01:42:47;;;;;;;11.48;5.50;;;;;;;-0.50;100.00;103426.84;4942928;28;20036;-76
2024/01/28 01:45:12;;;;;;;12.23;5.75;;;;;;;-0.52;100.00;103423.53;4942092;28;20054;-75
2024/01/28 01:47:39;;;;;;;15.18;5.43;;;;;;;-0.55;100.00;103432.50;4925924;29;20082;-75
2024/01/28 01:50:10;;;;;;;12.15;5.47;;;;;;;-0.55;100.00;103429.03;4940528;28;20035;-73
2024/01/28 01:52:39;;;;;;;16.13;5.57;;;;;;;-0.52;100.00;103438.50;4938101;28;20039;-73
2024/01/28 01:55:07;;;;;;;21.58;7.22;;;;;;;-0.50;100.00;103421.59;4936366;28;20044;-75
2024/01/28 01:57:33;;;;;;;13.43;5.45;;;;;;;-0.52;100.00;103423.53;4933868;28;20035;-76
2024/01/28 01:59:58;;;;;;;13.50;5.60;;;;;;;-0.52;100.00;103418.25;4938136;28;20070;-78
2024/01/28 02:02:24;;;;;;;14.43;6.03;;;;;;;-0.52;100.00;103418.25;4911987;29;20035;-77
2024/01/28 02:04:50;;;;;;;16.02;6.22;;;;;;;-0.52;100.00;103413.00;4921942;29;20035;-77
2024/01/28 02:07:16;;;;;;;13.77;6.13;;;;;;;-0.53;100.00;103416.59;4934353;28;21290;-77
2024/01/28 02:09:42;;;;;;;16.13;6.05;;;;;;;-0.53;100.00;103408.69;4937525;28;20063;-77
2024/01/28 02:12:08;;;;;;;15.10;6.80;;;;;;;-0.55;100.00;103418.50;4938715;28;20079;-76
2024/01/28 02:14:33;;;;;;;15.10;5.70;;;;;;;-0.51;100.00;103411.19;4926288;29;20090;-76
2024/01/28 02:16:59;;;;;;;15.45;5.68;;;;;;;-0.49;100.00;103410.09;4914444;28;20044;-76
2024/01/28 02:19:26;;;;;;;15.35;6.00;;;;;;;-0.47;100.00;103409.97;4940532;28;20422;-76
2024/01/28 02:21:52;;;;;;;14.05;5.82;;;;;;;-0.47;100.00;103410.81;4940389;28;20055;-75
2024/01/28 02:24:18;;;;;;;13.75;5.57;;;;;;;-0.43;100.00;103414.84;4936446;28;20047;-77
2024/01/28 02:26:43;;;;;;;18.77;5.90;;;;;;;-0.40;100.00;103416.38;4939537;28;20118;-76
2024/01/28 02:29:09;;;;;;;13.75;5.47;;;;;;;-0.35;100.00;103407.09;4939598;28;20071;-75
2024/01/28 02:31:35;;;;;;;12.73;5.30;;;;;;;-0.32;100.00;103401.59;4935091;28;20087;-77
2024/01/28 02:34:00;;;;;;;11.77;5.22;;;;;;;-0.31;100.00;103400.63;4922274;28;20146;-75
2024/01/28 02:36:28;;;;;;;20.67;5.63;;;;;;;-0.28;100.00;103392.44;4924124;29;20039;-78
2024/01/28 02:38:54;;;;;;;12.30;5.55;;;;;;;-0.25;100.00;103391.34;4940023;28;20087;-78
2024/01/28 02:41:20;;;;;;;15.73;5.60;;;;;;;-0.21;100.00;103394.53;4918785;28;20047;-76
2024/01/28 02:43:46;;;;;;;14.23;5.40;;;;;;;-0.21;100.00;103394.53;4921803;29;20794;-76
2024/01/28 02:46:14;;;;;;;18.45;5.30;;;;;;;-0.19;100.00;103384.72;4943212;28;20042;-76
2024/01/28 02:48:40;;;;;;;13.77;5.40;;;;;;;-0.18;100.00;103389.84;4938395;28;20031;-76
2024/01/28 02:51:06;;;;;;;15.98;5.72;;;;;;;-0.18;100.00;103387.22;4939953;28;20043;-76
2024/01/28 02:53:33;;;;;;;20.27;5.20;;;;;;;-0.16;100.00;103384.44;4937702;28;20031;-76
2024/01/28 02:56:00;;;;;;;14.00;5.40;;;;;;;-0.15;100.00;103381.66;4946588;28;20042;-76
2024/01/28 02:58:26;;;;;;;15.27;5.38;;;;;;;-0.12;100.00;103383.22;4940427;28;20038;-77
2024/01/28 03:00:52;;;;;;;17.20;5.03;;;;;;;-0.09;100.00;103367.97;4904559;29;20050;-76
2024/01/28 03:03:18;;;;;;;10.10;5.70;;;;;;;-0.07;100.00;103366.06;4936926;28;20035;-75
2024/01/28 03:05:44;;;;;;;11.95;4.63;;;;;;;-0.05;100.00;103368.53;4937675;28;20039;-77
2024/01/28 03:08:10;;;;;;;10.65;4.68;;;;;;;-0.05;100.00;103368.53;4944328;28;20035;-76
2024/01/28 03:10:36;;;;;;;14.82;5.15;;;;;;;-0.06;100.00;103369.53;4933566;28;20066;-78
2024/01/28 03:13:02;;;;;;;14.23;4.45;;;;;;;-0.09;100.00;103361.88;4933721;28;20489;-75
2024/01/28 03:15:27;;;;;;;16.58;5.85;;;;;;;-0.12;100.00;103362.97;4913409;29;20155;-76
2024/01/28 03:17:53;;;;;;;9.80;4.88;;;;;;;-0.14;100.00;103364.06;4944592;28;20058;-75
2024/01/28 03:20:19;;;;;;;12.70;5.47;;;;;;;-0.18;100.00;103357.41;4939992;28;20031;-76
2024/01/28 03:22:45;;;;;;;15.57;5.45;;;;;;;-0.20;100.00;103354.06;4924456;29;20043;-75
2024/01/28 03:25:12;;;;;;;18.70;5.72;;;;;;;-0.21;100.00;103344.50;4940240;28;20110;-76
2024/01/28 03:27:38;;;;;;;12.88;4.95;;;;;;;-0.24;100.00;103352.69;4936120;28;20043;-76
2024/01/28 03:30:05;;;;;;;11.35;5.28;;;;;;;-0.25;100.00;103340.50;4920404;28;20387;-77
2024/01/28 03:32:31;;;;;;;9.25;4.70;;;;;;;-0.25;100.00;103348.38;4926731;29;20157;-77
2024/01/28 03:34:57;;;;;;;12.85;5.05;;;;;;;-0.29;100.00;103340.75;4944359;28;20058;-77
2024/01/28 03:37:23;;;;;;;18.23;6.05;;;;;;;-0.33;100.00;103343.78;4941111;28;20081;-75
2024/01/28 03:39:49;;;;;;;14.48;6.40;;;;;;;-0.36;100.00;103346.69;4943665;28;20856;-76
2024/01/28 03:42:14;;;;;;;13.65;5.38;;;;;;;-0.42;100.00;103341.94;4941258;28;20078;-77
2024/01/28 03:44:41;;;;;;;14.90;5.80;;;;;;;-0.46;100.00;103338.75;4941079;28;20031;-75
2024/01/28 03:47:06;;;;;;;16.48;7.20;;;;;;;-0.49;100.00;103336.38;4921748;28;20049;-76
2024/01/28 03:49:32;;;;;;;18.25;6.22;;;;;;;-0.50;100.00;103339.97;4934406;28;20038;-76
2024/01/28 03:51:57;;;;;;;15.52;6.03;;;;;;;-0.50;100.00;103341.78;4945237;28;20063;-76
2024/01/28 03:54:23;;;;;;;18.52;6.50;;;;;;;-0.54;100.00;103335.97;4918987;28;20035;-77
2024/01/28 03:56:49;;;;;;;18.58;6.70;;;;;;;-0.52;100.00;103334.03;4941247;28;20046;-75
2024/01/28 03:59:14;;;;;;;17.30;6.07;;;;;;;-0.55;100.00;103339.53;4938250;28;20039;-76
2024/01/28 04:01:40;;;;;;;13.82;6.10;;;;;;;-0.58;100.00;103334.56;4935761;28;20050;-76
2024/01/28 04:04:06;;;;;;;16.13;5.88;;;;;;;-0.60;100.00;103339.13;4919916;28;20042;-76
2024/01/28 04:06:31;;;;;;;19.38;6.82;;;;;;;-0.62;100.00;103333.97;4935416;28;20070;-76
2024/01/28 04:08:57;;;;;;;13.65;5.07;;;;;;;-0.63;100.00;103336.75;4933875;28;20057;-76
2024/01/28 04:11:27;;;;;;;14.90;5.70;;;;;;;-0.66;100.00;103331.75;4938067;28;20074;-77
2024/01/28 04:13:54;;;;;;;16.50;5.68;;;;;;;-0.71;100.00;103328.69;4935900;28;20027;-78
2024/01/28 04:16:23;;;;;;;18.25;6.03;;;;;;;-0.74;100.00;103323.69;4915859;28;20036;-78
2024/01/28 04:18:52;;;;;;;19.90;6.45;;;;;;;-0.72;100.00;103334.91;4934679;29;20038;-77
2024/01/28 04:21:17;;;;;;;22.67;6.30;;;;;;;-0.75;100.00;103328.09;4944318;28;20031;-77
2024/01/28 04:23:43;;;;;;;13.75;6.07;;;;;;;-0.74;100.00;103323.69;4946701;28;20037;-77
2024/01/28 04:26:10;;;;;;;15.52;6.30;;;;;;;-0.76;100.00;103323.78;4925429;28;20054;-77
2024/01/28 04:28:36;;;;;;;17.98;6.78;;;;;;;-0.77;100.00;103314.25;4944281;28;20027;-77
2024/01/28 04:31:05;;;;;;;13.25;5.85;;;;;;;-0.75;100.00;103316.72;4937818;28;20051;-78
2024/01/28 04:33:31;;;;;;;18.70;6.25;;;;;;;-0.72;100.00;103316.50;4938859;28;20146;-76
2024/01/28 04:35:57;;;;;;;14.75;5.50;;;;;;;-0.76;100.00;103315.06;4925188;29;20560;-77
2024/01/28 04:38:22;;;;;;;13.23;5.97;;;;;;;-0.79;100.00;103315.34;4941797;28;20066;-77
2024/01/28 04:40:48;;;;;;;17.23;6.70;;;;;;;-0.78;100.00;103319.66;4928584;29;20128;-77
2024/01/28 04:43:14;;;;;;;20.52;6.95;;;;;;;-0.77;100.00;103326.56;4923599;28;20126;-78
2024/01/28 04:45:39;;;;;;;15.93;5.95;;;;;;;-0.79;100.00;103315.34;4947918;28;20102;-78
2024/01/28 04:48:05;;;;;;;19.40;6.63;;;;;;;-0.83;100.00;103317.41;4948210;28;20027;-76
2024/01/28 04:50:31;;;;;;;16.05;6.35;;;;;;;-0.88;100.00;103312.56;4934109;28;20126;-79
2024/01/28 04:52:57;;;;;;;15.60;5.50;;;;;;;-0.90;100.00;103313.63;4932693;29;20568;-78
2024/01/28 04:55:22;;;;;;;11.57;6.18;;;;;;;-0.94;100.00;103313.06;4923686;28;20069;-78
2024/01/28 04:57:48;;;;;;;12.13;5.60;;;;;;;-0.94;100.00;103320.13;4941404;28;20067;-78
2024/01/28 05:00:14;;;;;;;19.67;5.93;;;;;;;-0.95;100.00;103324.56;4933877;28;20523;-76
2024/01/28 05:02:40;;;;;;;13.73;5.80;;;;;;;-0.99;100.00;103315.25;4933948;28;20805;-77
2024/01/28 05:05:06;;;;;;;15.52;6.15;;;;;;;-1.02;100.00;103320.75;4939045;28;20034;-78
2024/01/28 05:07:31;;;;;;;16.27;5.72;;;;;;;-1.02;100.00;103318.13;4938334;28;20109;-77
2024/01/28 05:09:57;;;;;;;11.95;5.13;;;;;;;-1.05;100.00;103321.03;4925206;29;20437;-78
2024/01/28 05:12:23;;;;;;;18.90;6.47;;;;;;;-1.08;100.00;103316.03;4933316;28;20413;-77
2024/01/28 05:14:50;;;;;;;15.15;5.05;;;;;;;-1.08;100.00;103305.53;4947833;28;20043;-78
2024/01/28 05:17:16;;;;;;;11.82;5.45;;;;;;;-1.08;100.00;103300.25;4903177;28;20039;-78
2024/01/28 05:19:41;;;;;;;16.90;6.20;;;;;;;-1.10;100.00;103302.16;4928783;29;20039;-78
2024/01/28 05:22:07;;;;;;;16.60;5.90;;;;;;;-1.13;100.00;103298.00;4937814;28;20051;-79
2024/01/28 05:24:33;;;;;;;13.40;5.72;;;;;;;-1.15;100.00;103289.44;4945528;28;20032;-77
2024/01/28 05:26:59;;;;;;;16.67;5.35;;;;;;;-1.16;100.00;103286.91;4919955;28;20042;-75
2024/01/28 05:29:25;;;;;;;14.48;6.00;;;;;;;-1.20;100.00;103296.88;4937410;28;20081;-77
2024/01/28 05:31:52;;;;;;;14.57;5.30;;;;;;;-1.22;100.00;103287.41;4940176;28;20039;-76
2024/01/28 05:34:18;;;;;;;15.32;6.28;;;;;;;-1.23;100.00;103283.97;4939960;28;20036;-76
2024/01/28 05:36:50;;;;;;;19.10;6.00;;;;;;;-1.25;100.00;103290.31;4944816;28;20038;-77
2024/01/28 05:39:18;;;;;;;18.88;6.90;;;;;;;-1.26;100.00;103292.13;4935678;28;20039;-78
2024/01/28 05:41:44;;;;;;;12.80;5.30;;;;;;;-1.28;100.00;103290.59;4920526;29;20106;-78
2024/01/28 05:44:10;;;;;;;18.95;7.35;;;;;;;-1.26;100.00;103280.78;4941288;28;20058;-78
2024/01/28 05:46:36;;;;;;;17.48;6.82;;;;;;;-1.24;100.00;103278.84;4956304;28;20218;-78
2024/01/28 05:49:02;;;;;;;23.75;7.53;;;;;;;-1.23;100.00;103286.59;4940753;28;20580;-78
2024/01/28 05:51:28;;;;;;;23.00;7.38;;;;;;;-1.23;100.00;103283.13;4939850;28;20039;-79
2024/01/28 05:53:54;;;;;;;15.68;6.70;;;;;;;-1.24;100.00;103287.56;4942677;28;20071;-77
2024/01/28 05:56:20;;;;;;;;;;;;;;;-1.22;100.00;103292.69;4946047;28;20043;-76
2024/01/28 05:58:46;;;;;;;17.95;6.90;;;;;;;-1.23;100.00;103294.47;4945956;28;20239;-76
2024/01/28 06:01:12;;;;;;;14.27;6.13;;;;;;;-1.26;100.00;103296.53;4923230;29;20220;-76
2024/01/28 06:03:38;;;;;;;16.17;6.03;;;;;;;-1.28;100.00;103298.47;4939533;28;20508;-76
2024/01/28 06:06:04;;;;;;;18.77;6.47;;;;;;;-1.29;100.00;103291.53;4929157;29;20040;-76
2024/01/28 06:08:30;;;;;;;16.95;6.07;;;;;;;-1.31;100.00;103288.19;4929169;28;20031;-76
2024/01/28 06:10:56;;;;;;;12.20;5.30;;;;;;;-1.32;100.00;103283.91;4924870;29;20067;-76
2024/01/28 06:13:21;;;;;;;16.30;6.28;;;;;;;-1.31;100.00;103277.69;4946056;28;20046;-77
2024/01/28 06:15:47;;;;;;;16.67;6.20;;;;;;;-1.31;100.00;103277.69;4941299;28;20035;-78
2024/01/28 06:18:13;;;;;;;18.27;6.22;;;;;;;-1.30;100.00;103279.34;4945599;28;20043;-78
2024/01/28 06:20:38;;;;;;;19.77;7.28;;;;;;;-1.30;100.00;103282.81;4944134;28;20167;-78
2024/01/28 06:23:04;;;;;;;19.42;6.15;;;;;;;-1.30;100.00;103280.19;4950745;28;20535;-78
2024/01/28 06:25:30;;;;;;;18.33;7.85;;;;;;;-1.30;100.00;103284.59;4942574;28;20640;-78
2024/01/28 06:27:56;;;;;;;13.88;5.85;;;;;;;-1.31;100.00;103278.50;4941250;28;20031;-79
2024/01/28 06:30:21;;;;;;;16.48;6.38;;;;;;;-1.33;100.00;103280.44;4941608;28;20035;-78
2024/01/28 06:32:47;;;;;;;11.07;5.75;;;;;;;-1.35;100.00;103281.53;4940759;29;20129;-79
2024/01/28 06:35:12;;;;;;;17.05;6.35;;;;;;;-1.40;100.00;103274.88;4934851;28;20077;-76
2024/01/28 06:37:39;;;;;;;15.70;6.28;;;;;;;-1.43;100.00;103280.38;4923187;29;20035;-79
2024/01/28 06:40:06;;;;;;;14.25;6.00;;;;;;;-1.46;100.00;103291.16;4933387;28;20039;-76
2024/01/28 06:42:32;;;;;;;18.58;6.53;;;;;;;-1.53;100.00;103290.00;4935705;28;20036;-78
2024/01/28 06:44:59;;;;;;;12.38;5.75;;;;;;;-1.54;100.00;103288.34;4929446;29;21131;-78
2024/01/28 06:47:25;;;;;;;21.80;6.75;;;;;;;-1.54;100.00;103290.13;4924711;28;20070;-77
2024/01/28 06:49:51;;;;;;;17.42;5.78;;;;;;;-1.55;100.00;103284.03;4940484;28;20028;-77
2024/01/28 06:52:17;;;;;;;17.88;7.13;;;;;;;-1.52;100.00;103285.56;4939073;28;20046;-78
2024/01/28 06:54:43;;;;;;;18.95;6.38;;;;;;;-1.50;100.00;103289.72;4941692;28;20038;-78
2024/01/28 06:57:09;;;;;;;17.17;6.43;;;;;;;-1.48;100.00;103290.47;4937456;28;20035;-78
2024/01/28 06:59:35;;;;;;;15.27;7.53;;;;;;;-1.46;100.00;103291.16;4943241;28;20031;-78
2024/01/28 07:02:01;;;;;;;19.02;6.57;;;;;;;-1.47;100.00;103273.72;4936107;29;20070;-78
2024/01/28 07:04:26;;;;;;;20.13;7.00;;;;;;;-1.46;100.00;103280.63;4946928;28;20191;-78
2024/01/28 07:06:52;;;;;;;18.20;7.22;;;;;;;-1.43;100.00;103277.75;4947899;28;20125;-78
2024/01/28 07:09:18;;;;;;;17.60;6.35;;;;;;;-1.40;100.00;103284.56;4922460;28;20063;-78
2024/01/28 07:11:44;;;;;;;15.88;6.60;;;;;;;-1.38;100.00;103288.72;4914557;29;20056;-78
2024/01/28 07:14:10;;;;;;;21.60;6.93;;;;;;;-1.37;100.00;103282.50;4931438;28;20039;-78
2024/01/28 07:16:36;;;;;;;22.38;6.78;;;;;;;-1.37;100.00;103285.13;4921941;28;20035;-78
2024/01/28 07:19:02;;;;;;;18.60;5.90;;;;;;;-1.37;100.00;103277.22;4934056;28;20044;-78
2024/01/28 07:21:27;;;;;;;18.67;7.07;;;;;;;-1.33;100.00;103274.38;4935314;28;20041;-78
2024/01/28 07:23:53;;;;;;;17.35;6.82;;;;;;;-1.31;100.00;103273.25;4936442;28;20035;-77
2024/01/28 07:26:19;;;;;;;15.93;7.25;;;;;;;-1.31;100.00;103267.16;4937391;28;20039;-78
2024/01/28 07:28:45;;;;;;;21.27;9.82;;;;;;;-1.31;100.00;103270.63;4936932;28;20095;-78
2024/01/28 07:31:11;;;;;;;24.67;8.73;;;;;;;-1.28;100.00;103261.66;4936507;28;20143;-78
2024/01/28 07:33:36;;;;;;;19.02;8.00;;;;;;;-1.25;100.00;103269.28;4939044;28;20031;-78
2024/01/28 07:36:02;;;;;;;15.85;7.47;;;;;;;-1.22;100.00;103266.38;4941933;28;20031;-78
2024/01/28 07:38:28;;;;;;;18.92;6.60;;;;;;;-1.21;100.00;103262.81;4943210;28;20044;-78
2024/01/28 07:40:54;;;;;;;15.23;5.60;;;;;;;-1.18;100.00;103262.53;4938122;28;20094;-77
2024/01/28 07:43:20;;;;;;;18.65;6.28;;;;;;;-1.14;100.00;103275.31;4933440;28;20112;-78
2024/01/28 07:45:46;;;;;;;15.65;5.63;;;;;;;-1.11;100.00;103267.16;4923179;29;20171;-79
2024/01/28 07:48:11;;;;;;;16.23;5.53;;;;;;;-1.08;100.00;103278.34;4937122;28;20072;-78
2024/01/28 07:50:37;;;;;;;15.13;5.60;;;;;;;-1.05;100.00;103262.34;4934055;28;20496;-79
2024/01/28 07:53:03;;;;;;;15.18;5.38;;;;;;;-0.99;100.00;103261.81;4946386;28;20047;-78
2024/01/28 07:55:28;;;;;;;23.15;7.53;;;;;;;-0.95;100.00;103263.19;4940081;28;20118;-78
2024/01/28 07:57:55;;;;;;;17.50;6.63;;;;;;;-0.90;100.00;103264.47;4947400;28;20039;-77
2024/01/28 08:00:21;;;;;;;16.30;6.57;;;;;;;-0.85;100.00;103258.81;4938659;28;20062;-78
2024/01/28 08:02:46;;;;;;;17.60;5.97;;;;;;;-0.79;100.00;103262.72;4940559;28;20043;-78
2024/01/28 08:05:12;;;;;;;19.30;6.20;;;;;;;-0.74;100.00;103260.53;4927120;29;20043;-78
2024/01/28 08:07:38;;;;;;;21.23;6.30;;;;;;;-0.70;100.00;103257.47;4935212;28;20505;-77
2024/01/28 08:10:04;;;;;;;15.57;5.57;;;;;;;-0.68;100.00;103259.97;4944126;28;20683;-78
2024/01/28 08:12:30;;;;;;;21.73;6.55;;;;;;;-0.66;100.00;103258.91;4929123;28;20089;-78
2024/01/28 08:14:56;;;;;;;19.48;6.38;;;;;;;-0.61;100.00;103258.47;4930533;29;20525;-77
2024/01/28 08:17:21;;;;;;;16.48;6.05;;;;;;;-0.58;100.00;103255.59;4943271;28;20126;-78
2024/01/28 08:19:47;;;;;;;15.07;5.30;;;;;;;-0.55;100.00;103247.41;4939032;28;20041;-79
2024/01/28 08:22:13;;;;;;;20.17;5.97;;;;;;;-0.52;100.00;103257.69;4934295;29;20039;-78
2024/01/28 08:24:39;;;;;;;14.85;6.22;;;;;;;-0.49;100.00;103259.22;4924928;28;20038;-77
2024/01/28 08:27:04;;;;;;;15.95;5.15;;;;;;;-0.45;100.00;103261.44;4947286;28;20039;-77
2024/01/28 08:29:30;;;;;;;15.73;5.90;;;;;;;-0.41;100.00;103262.81;4945449;28;20038;-77
2024/01/28 08:31:57;;;;;;;15.48;5.10;;;;;;;-0.36;100.00;103278.22;4940564;28;20031;-78
2024/01/28 08:34:23;;;;;;;17.13;6.20;;;;;;;-0.35;100.00;103277.25;4943920;28;20435;-78
2024/01/28 08:36:50;;;;;;;14.00;5.68;;;;;;;-0.32;100.00;103274.34;4931645;29;20564;-77
2024/01/28 08:39:15;;;;;;;14.55;5.30;;;;;;;-0.32;100.00;103261.19;4942588;28;20031;-78
2024/01/28 08:41:41;;;;;;;15.43;5.63;;;;;;;-0.31;100.00;103257.59;4922992;28;20047;-78
2024/01/28 08:44:09;;;;;;;15.63;4.85;;;;;;;-0.29;100.00;103259.09;4933866;29;20062;-75
2024/01/28 08:46:41;;;;;;;19.60;5.07;;;;;;;-0.25;100.00;103258.84;4936913;28;20073;-74
2024/01/28 08:49:07;;;;;;;16.80;5.80;;;;;;;-0.23;100.00;103259.53;4926653;29;20053;-77
2024/01/28 08:51:33;;;;;;;15.95;5.18;;;;;;;-0.19;100.00;103268.84;4936031;28;20035;-77
2024/01/28 08:53:59;;;;;;;12.40;4.45;;;;;;;-0.14;100.00;103261.34;4926279;29;20031;-76
2024/01/28 08:56:25;;;;;;;17.35;5.80;;;;;;;-0.10;100.00;103260.94;4934680;28;20044;-75
2024/01/28 08:58:51;;;;;;;19.38;5.00;;;;;;;-0.06;100.00;103261.50;4934393;28;20062;-76
2024/01/28 09:01:16;;;;;;;8.02;4.45;;;;;;;-0.03;100.00;103255.94;4936416;28;20413;-76
2024/01/28 09:03:44;;;;;;;12.80;5.30;;;;;;;0.01;100.00;103256.53;4936159;28;20055;-75
2024/01/28 09:06:10;;;;;;;12.32;4.43;;;;;;;0.03;100.00;103252.78;4933958;28;20142;-75
2024/01/28 09:08:35;;;;;;;17.63;5.90;;;;;;;0.06;100.00;103254.28;4932761;28;20069;-75
2024/01/28 09:11:01;;;;;;;13.80;5.15;;;;;;;0.09;100.00;103256.66;4941441;28;20042;-74
2024/01/28 09:13:27;;;;;;;15.98;4.95;;;;;;;0.15;100.00;103264.84;4931705;28;20035;-74
2024/01/28 09:15:53;;;;;;;12.73;4.93;;;;;;;0.18;100.00;103254.00;4936544;28;20032;-74
2024/01/28 09:18:19;;;;;;;12.35;4.80;;;;;;;0.28;100.00;103253.19;4924553;29;20083;-75
2024/01/28 09:20:45;;;;;;;;;;;;;;;0.37;100.00;103262.88;4937288;28;20647;-75
2024/01/28 09:23:11;;;;;;;12.00;5.00;;;;;;;0.44;100.00;103256.06;4948839;28;20093;-75
2024/01/28 09:25:36;;;;;;;12.07;5.30;;;;;;;0.49;100.00;103253.84;4938306;28;20043;-75
2024/01/28 09:28:03;;;;;;;13.32;4.28;;;;;;;0.53;100.00;103242.84;4943473;28;20043;-73
2024/01/28 09:30:29;;;;;;;11.10;4.40;;;;;;;0.61;100.00;103250.09;4942248;28;20558;-73
2024/01/28 09:32:54;;;;;;;12.07;4.43;;;;;;;0.69;100.00;103247.56;4939847;28;20035;-74
2024/01/28 09:35:20;;;;;;;18.05;4.78;;;;;;;0.75;100.00;103241.72;4926271;29;20043;-74
2024/01/28 09:37:46;;;;;;;14.77;4.57;;;;;;;0.85;100.00;103246.94;4938497;28;20061;-74
2024/01/28 09:40:13;;;;;;;15.73;4.22;;;;;;;0.88;100.00;103244.03;4942596;28;20096;-73
2024/01/28 09:42:57;;;;;;;18.02;4.25;;;;;;;0.95;100.00;103242.50;4937739;28;20460;-73
2024/01/28 09:45:25;;;;;;;12.80;4.85;;;;;;;1.05;100.00;103235.34;4938932;28;20039;-73
2024/01/28 09:47:50;;;;;;;11.90;4.22;;;;;;;1.14;100.00;103240.72;4931355;28;20111;-74
2024/01/28 09:50:16;;;;;;;10.55;3.88;;;;;;;1.23;100.00;103251.25;4915427;28;20527;-74
2024/01/28 09:52:42;;;;;;;16.23;3.92;;;;;;;1.31;100.00;103253.97;4934930;28;20043;-73
2024/01/28 09:55:08;;;;;;;11.30;3.30;;;;;;;1.40;100.00;103248.78;4935073;28;20079;-74
2024/01/28 09:57:34;;;;;;;15.10;3.97;;;;;;;1.47;100.00;103242.78;4936863;28;20126;-74
2024/01/28 10:00:00;;;;;;;14.00;3.47;;;;;;;1.53;100.00;103241.34;4935070;28;20138;-74
2024/01/28 10:02:27;;;;;;;11.18;3.58;;;;;;;1.62;100.00;103240.44;4934242;28;20051;-77
2024/01/28 10:04:53;;;;;;;13.65;3.67;;;;;;;1.71;100.00;103242.22;4932864;28;20090;-76
2024/01/28 10:07:18;;;;;;;9.40;3.38;;;;;;;1.79;100.00;103234.38;4922949;29;20035;-77
2024/01/28 10:09:45;;;;;;;11.27;4.18;;;;;;;1.91;100.00;103248.19;4934887;28;20039;-77
2024/01/28 10:12:11;;;;;;;;;;;;;;;2.01;100.00;103235.72;4940700;28;20071;-76
2024/01/28 10:14:36;;;;;;;13.10;3.65;;;;;;;2.08;100.00;103238.59;4936492;28;19956;-77
2024/01/28 10:17:02;;;;;;;11.85;3.55;;;;;;;2.13;100.00;103233.69;4945423;28;20035;-77
2024/01/28 10:19:28;;;;;;;9.80;3.03;;;;;;;2.21;100.00;103230.25;4941005;28;20051;-77
2024/01/28 10:21:53;;;;;;;14.52;3.63;;;;;;;2.25;100.00;103221.88;4936944;28;20035;-76
2024/01/28 10:24:20;;;;;;;11.88;3.20;;;;;;;2.33;100.00;103214.00;4924979;29;20592;-76
2024/01/28 10:26:46;;;;;;;11.85;3.35;;;;;;;2.39;100.00;103216.03;4921423;28;20027;-78
2024/01/28 10:29:12;;;;;;;9.80;3.30;;;;;;;2.49;100.00;103207.97;4921775;29;20035;-77
2024/01/28 10:31:38;;;;;;;;;;;;;;;2.55;100.00;103203.88;4926136;28;20102;-76
2024/01/28 10:34:03;;;;;;;11.20;2.92;;;;;;;2.62;100.00;103200.47;4938902;28;19923;-75
2024/01/28 10:36:32;;;;;;;9.80;3.25;;;;;;;2.67;100.00;103200.00;4941510;28;20046;-74
2024/01/28 10:39:01;;;;;;;7.82;2.78;;;;;;;2.75;100.00;103202.69;4920979;29;20728;-74
2024/01/28 10:41:29;;;;;;;13.68;3.15;;;;;;;2.81;100.00;103202.06;4937871;28;20063;-75
2024/01/28 10:43:57;;;;;;;9.35;3.22;;;;;;;2.88;100.00;103203.09;4918029;28;20032;-75
2024/01/28 10:46:34;;;;;;;8.45;2.70;;;;;;;2.94;100.00;103186.56;4935278;28;20042;-75
2024/01/28 10:49:04;;;;;;;7.80;2.70;;;;;;;3.00;100.00;103185.09;4937590;28;20038;-76
2024/01/28 10:51:32;;;;;;;8.48;2.85;;;;;;;3.08;100.00;103179.00;4939891;28;20126;-73
2024/01/28 10:53:59;;;;;;;13.48;3.10;;;;;;;3.15;100.00;103182.69;4943364;28;20093;-76
2024/01/28 10:56:25;;;;;;;8.40;2.75;;;;;;;3.23;100.00;103172.94;4937511;28;20425;-74
2024/01/28 10:58:52;;;;;;;10.80;3.08;;;;;;;3.31;100.00;103177.41;4920200;28;20459;-75
2024/01/28 11:01:18;;;;;;;9.38;2.65;;;;;;;3.32;100.00;103176.44;4936043;28;20035;-75
2024/01/28 11:03:45;;;;;;;11.55;3.35;;;;;;;3.41;100.00;103162.22;4943174;28;20094;-75
2024/01/28 11:06:10;;;;;;;6.75;2.28;;;;;;;3.55;100.00;103160.75;4934368;28;20505;-75